Time;durP1;ratioP1;P1;durP2;ratioP2;P2;SDS_P1;SDS_P2;PMS_P1;PMS_P2;Temp;Humidity;BMP_temperature;BMP_pressure;BME280_temperature;BME280_humidity;BME280_pressure;Samples;Min_cycle;Max_cycle;Signal;HPM_P1;HPM_P2
2023/08/26 00:02:19;;;;;;;12.40;10.87;;;19.10;99.90;;;;;;5070517;28;20174;-73
2023/08/26 00:04:47;;;;;;;16.33;11.50;;;19.10;99.90;;;;;;5070832;28;20332;-73
2023/08/26 00:07:13;;;;;;;17.10;11.63;;;19.10;99.90;;;;;;5070769;28;20584;-73
2023/08/26 00:09:39;;;;;;;15.57;11.70;;;19.10;99.90;;;;;;5070174;28;20190;-72
2023/08/26 00:12:05;;;;;;;14.40;12.43;;;19.00;99.90;;;;;;5070595;28;20174;-72
2023/08/26 00:14:31;;;;;;;16.57;13.73;;;19.00;99.90;;;;;;5070405;28;20259;-73
2023/08/26 00:16:57;;;;;;;19.30;14.23;;;18.90;99.90;;;;;;5069281;28;20176;-73
2023/08/26 00:19:23;;;;;;;17.43;15.53;;;18.90;99.90;;;;;;5069093;28;20182;-73
2023/08/26 00:21:50;;;;;;;20.67;15.67;;;18.80;99.90;;;;;;5058493;28;20190;-72
2023/08/26 00:24:16;;;;;;;18.70;14.73;;;18.70;99.90;;;;;;5050375;28;20633;-73
2023/08/26 00:26:42;;;;;;;20.07;15.27;;;18.70;99.90;;;;;;5050487;28;20672;-73
2023/08/26 00:29:07;;;;;;;17.40;14.27;;;18.60;99.90;;;;;;5054084;28;20197;-72
2023/08/26 00:31:33;;;;;;;20.90;13.87;;;18.60;99.90;;;;;;5053685;28;20173;-73
2023/08/26 00:34:02;;;;;;;19.53;15.33;;;18.50;99.90;;;;;;5054045;28;20190;-73
2023/08/26 00:36:28;;;;;;;19.27;15.10;;;18.50;99.90;;;;;;5053696;28;20178;-73
2023/08/26 00:38:54;;;;;;;17.30;13.40;;;18.40;99.90;;;;;;5054282;28;20174;-73
2023/08/26 00:41:19;;;;;;;19.37;14.63;;;18.40;99.90;;;;;;5053525;28;20191;-73
2023/08/26 00:43:46;;;;;;;13.90;12.13;;;18.40;99.90;;;;;;5053848;28;20206;-74
2023/08/26 00:46:12;;;;;;;14.13;11.13;;;18.40;99.90;;;;;;5054016;28;20217;-71
2023/08/26 00:48:37;;;;;;;14.53;10.33;;;18.30;99.90;;;;;;5060616;28;20578;-72
2023/08/26 00:51:04;;;;;;;13.37;9.17;;;18.20;99.90;;;;;;5073658;28;20171;-74
2023/08/26 00:53:30;;;;;;;10.50;8.63;;;18.20;99.90;;;;;;5073717;28;20170;-74
2023/08/26 00:55:56;;;;;;;10.77;8.27;;;18.10;99.90;;;;;;5072648;28;20648;-74
2023/08/26 00:58:21;;;;;;;10.37;8.47;;;18.00;99.90;;;;;;5072757;28;20170;-71
2023/08/26 01:00:48;;;;;;;12.83;7.70;;;17.90;99.90;;;;;;5073036;28;20190;-73
2023/08/26 01:03:14;;;;;;;9.83;7.03;;;17.80;99.90;;;;;;5072815;28;20216;-73
2023/08/26 01:05:40;;;;;;;7.10;6.20;;;17.80;99.90;;;;;;5073104;28;20666;-73
2023/08/26 01:08:06;;;;;;;11.83;7.20;;;17.70;99.90;;;;;;5073289;28;20175;-73
2023/08/26 01:10:43;;;;;;;11.23;6.73;;;17.60;99.90;;;;;;5073361;28;20174;-71
2023/08/26 01:13:14;;;;;;;9.17;7.20;;;17.50;99.90;;;;;;5071971;28;20177;-72
2023/08/26 01:15:44;;;;;;;11.30;6.87;;;17.40;99.90;;;;;;5064714;28;20234;-72
2023/08/26 01:18:13;;;;;;;8.83;7.03;;;17.30;99.90;;;;;;5053134;28;20182;-70
2023/08/26 01:20:43;;;;;;;8.73;6.70;;;17.20;99.90;;;;;;5052161;28;20194;-71
2023/08/26 01:23:17;;;;;;;9.27;6.03;;;17.10;99.90;;;;;;5053013;28;20186;-73
2023/08/26 01:25:42;;;;;;;10.90;6.20;;;17.00;99.90;;;;;;5052791;28;20211;-75
2023/08/26 01:28:08;;;;;;;6.70;5.70;;;16.90;99.90;;;;;;5053463;28;20175;-71
2023/08/26 01:30:35;;;;;;;6.13;5.23;;;16.90;99.90;;;;;;5052993;28;20183;-73
2023/08/26 01:33:19;;;;;;;7.80;5.87;;;16.70;99.90;;;;;;5051046;28;20529;-72
2023/08/26 01:35:47;;;;;;;6.77;5.47;;;16.60;99.90;;;;;;5051519;28;20234;-73
2023/08/26 01:38:16;;;;;;;5.90;5.13;;;16.60;99.90;;;;;;5052800;28;20225;-72
2023/08/26 01:40:49;;;;;;;5.67;5.07;;;16.50;99.90;;;;;;5053321;28;20174;-73
2023/08/26 01:43:16;;;;;;;4.97;4.57;;;16.40;99.90;;;;;;5060757;28;20225;-71
2023/08/26 01:45:42;;;;;;;5.33;4.23;;;16.20;99.90;;;;;;5072614;28;20206;-74
2023/08/26 01:48:07;;;;;;;5.73;4.57;;;16.20;99.90;;;;;;5072325;28;20274;-74
2023/08/26 01:50:33;;;;;;;5.00;4.53;;;16.10;99.90;;;;;;5072434;28;20278;-71
2023/08/26 01:52:59;;;;;;;7.50;4.90;;;16.00;99.90;;;;;;5072577;28;20672;-73
2023/08/26 01:55:24;;;;;;;4.97;4.53;;;15.90;99.90;;;;;;5071297;28;20201;-73
2023/08/26 01:57:50;;;;;;;7.50;4.30;;;15.90;99.90;;;;;;5064396;28;20218;-71
2023/08/26 02:00:15;;;;;;;4.47;4.10;;;15.70;99.90;;;;;;5052716;28;20633;-73
2023/08/26 02:02:41;;;;;;;5.13;3.87;;;15.70;99.90;;;;;;5052643;28;20246;-73
2023/08/26 02:05:07;;;;;;;7.77;4.80;;;15.60;99.90;;;;;;5052657;28;20209;-73
2023/08/26 02:07:33;;;;;;;6.03;4.57;;;15.50;99.90;;;;;;5052606;28;20210;-72
2023/08/26 02:09:58;;;;;;;5.93;4.37;;;15.50;99.90;;;;;;5056931;28;20211;-73
2023/08/26 02:12:24;;;;;;;5.70;4.87;;;15.40;99.90;;;;;;5070718;28;20178;-71
2023/08/26 02:14:50;;;;;;;6.10;4.70;;;15.30;99.90;;;;;;5072453;28;20230;-72
2023/08/26 02:17:15;;;;;;;5.37;4.43;;;15.30;99.90;;;;;;5072185;28;20178;-73
2023/08/26 02:19:41;;;;;;;7.37;4.87;;;15.30;99.90;;;;;;5072410;28;20181;-73
2023/08/26 02:22:08;;;;;;;6.30;4.60;;;15.20;99.90;;;;;;5072266;28;20178;-73
2023/08/26 02:24:34;;;;;;;8.17;5.07;;;15.20;99.90;;;;;;5070645;28;20197;-73
2023/08/26 02:27:00;;;;;;;8.77;4.60;;;15.20;99.90;;;;;;5072230;28;20209;-72
2023/08/26 02:29:25;;;;;;;5.67;4.97;;;15.20;99.90;;;;;;5072348;28;20170;-72
2023/08/26 02:31:51;;;;;;;5.67;5.17;;;15.10;99.90;;;;;;5071876;28;20571;-73
2023/08/26 02:34:17;;;;;;;7.70;5.03;;;15.10;99.90;;;;;;5072138;28;20186;-74
2023/08/26 02:36:42;;;;;;;5.70;4.80;;;15.10;99.90;;;;;;5072050;28;20181;-73
2023/08/26 02:39:08;;;;;;;12.00;5.17;;;15.10;99.90;;;;;;5072053;28;20276;-73
2023/08/26 02:41:33;;;;;;;8.87;5.23;;;15.00;99.90;;;;;;5071890;28;20198;-74
2023/08/26 02:43:59;;;;;;;6.17;5.23;;;15.00;99.90;;;;;;5071884;28;20251;-72
2023/08/26 02:46:25;;;;;;;5.73;5.10;;;15.00;99.90;;;;;;5071877;28;20735;-73
2023/08/26 02:48:51;;;;;;;6.47;4.60;;;15.00;99.90;;;;;;5070711;28;20272;-72
2023/08/26 02:51:16;;;;;;;6.40;4.60;;;15.00;99.90;;;;;;5071545;28;20628;-74
2023/08/26 02:53:42;;;;;;;8.80;4.50;;;15.00;99.90;;;;;;5053726;28;20209;-73
2023/08/26 02:56:07;;;;;;;7.83;5.17;;;14.90;99.90;;;;;;5051693;28;20194;-74
2023/08/26 02:58:33;;;;;;;7.37;4.70;;;14.90;99.90;;;;;;5051810;28;20186;-73
2023/08/26 03:01:02;;;;;;;5.97;5.27;;;14.90;99.90;;;;;;5051334;28;20205;-73
2023/08/26 03:03:27;;;;;;;5.47;4.83;;;14.90;99.90;;;;;;5049355;28;20248;-72
2023/08/26 03:05:59;;;;;;;9.73;4.80;;;14.80;99.90;;;;;;5065948;28;20699;-74
2023/08/26 03:08:26;;;;;;;6.73;4.67;;;14.80;99.90;;;;;;5071144;28;20171;-73
2023/08/26 03:11:00;;;;;;;6.53;4.90;;;14.80;99.90;;;;;;5071531;28;20336;-73
2023/08/26 03:13:25;;;;;;;6.53;4.47;;;14.70;99.90;;;;;;5071110;28;20204;-73
2023/08/26 03:15:51;;;;;;;5.10;4.50;;;14.70;99.90;;;;;;5070730;28;20612;-74
2023/08/26 03:18:17;;;;;;;5.17;4.53;;;14.60;99.90;;;;;;5071497;28;20180;-73
2023/08/26 03:20:42;;;;;;;6.47;4.30;;;14.50;99.90;;;;;;5071287;28;20178;-72
2023/08/26 03:23:08;;;;;;;7.90;4.97;;;14.50;99.90;;;;;;5071206;28;20652;-74
2023/08/26 03:25:37;;;;;;;6.67;4.63;;;14.50;99.90;;;;;;5071168;28;20193;-73
2023/08/26 03:28:03;;;;;;;5.90;4.13;;;14.50;99.90;;;;;;5071388;28;20166;-73
2023/08/26 03:30:29;;;;;;;5.37;4.10;;;14.50;99.90;;;;;;5066212;28;20231;-72
2023/08/26 03:32:55;;;;;;;4.83;4.43;;;14.40;99.90;;;;;;5051072;28;20649;-73
2023/08/26 03:35:20;;;;;;;4.60;4.10;;;14.40;99.90;;;;;;5051217;28;20571;-73
2023/08/26 03:37:46;;;;;;;7.60;4.40;;;14.30;99.90;;;;;;5051150;28;20450;-73
2023/08/26 03:40:12;;;;;;;5.37;4.20;;;14.20;99.90;;;;;;5051197;28;20179;-73
2023/08/26 03:42:38;;;;;;;5.73;4.50;;;14.20;99.90;;;;;;5050978;28;20190;-72
2023/08/26 03:45:04;;;;;;;8.90;5.10;;;14.20;99.90;;;;;;5051466;28;20197;-73
2023/08/26 03:47:31;;;;;;;6.80;4.57;;;14.10;99.90;;;;;;5049824;28;20202;-73
2023/08/26 03:49:56;;;;;;;4.90;4.40;;;14.10;99.90;;;;;;5063189;28;20269;-73
2023/08/26 03:52:22;;;;;;;8.53;4.63;;;14.00;99.90;;;;;;5070832;28;20250;-74
2023/08/26 03:54:47;;;;;;;6.53;4.70;;;14.00;99.90;;;;;;5071265;28;20204;-74
2023/08/26 03:57:13;;;;;;;7.03;4.93;;;14.00;99.90;;;;;;5070623;28;20178;-73
2023/08/26 03:59:39;;;;;;;6.47;4.30;;;13.90;99.90;;;;;;5051343;28;20175;-74
2023/08/26 04:02:04;;;;;;;10.50;4.87;;;13.90;99.90;;;;;;5050972;28;20584;-74
2023/08/26 04:04:31;;;;;;;6.87;4.30;;;13.90;99.90;;;;;;5054904;28;20589;-73
2023/08/26 04:06:57;;;;;;;5.30;4.80;;;13.80;99.90;;;;;;5055181;28;20282;-73
2023/08/26 04:09:23;;;;;;;6.87;4.77;;;13.80;99.90;;;;;;5054927;28;20159;-73
2023/08/26 04:11:49;;;;;;;10.37;4.17;;;13.80;99.90;;;;;;5054601;28;20178;-72
2023/08/26 04:14:15;;;;;;;7.77;4.57;;;13.80;99.90;;;;;;5073040;28;20247;-73
2023/08/26 04:16:40;;;;;;;7.63;4.73;;;13.70;99.90;;;;;;5074800;28;20166;-73
2023/08/26 04:19:06;;;;;;;4.80;4.23;;;13.70;99.90;;;;;;5074810;28;20200;-74
2023/08/26 04:21:32;;;;;;;4.93;4.13;;;13.70;99.90;;;;;;5074276;28;20174;-74
2023/08/26 04:23:57;;;;;;;4.57;3.97;;;13.60;99.90;;;;;;5074267;28;20190;-72
2023/08/26 04:26:23;;;;;;;6.63;4.37;;;13.70;99.90;;;;;;5059312;28;20229;-74
2023/08/26 04:28:49;;;;;;;5.10;4.23;;;13.60;99.90;;;;;;5054184;28;20256;-73
2023/08/26 04:31:14;;;;;;;8.90;4.50;;;13.60;99.90;;;;;;5053897;28;20576;-73
2023/08/26 04:33:40;;;;;;;7.50;4.40;;;13.60;99.90;;;;;;5052929;28;20725;-73
2023/08/26 04:36:06;;;;;;;6.37;4.43;;;13.60;99.90;;;;;;5053970;28;20170;-74
2023/08/26 04:38:32;;;;;;;8.00;3.80;;;13.60;99.90;;;;;;5053663;28;20175;-73
2023/08/26 04:40:58;;;;;;;5.10;3.63;;;13.60;99.90;;;;;;5053786;28;20190;-73
2023/08/26 04:43:25;;;;;;;8.07;4.03;;;13.60;99.90;;;;;;5053298;28;20175;-72
2023/08/26 04:45:52;;;;;;;5.13;4.00;;;13.60;99.90;;;;;;5054059;28;20273;-73
2023/08/26 04:48:18;;;;;;;10.30;3.97;;;13.60;99.90;;;;;;5054163;28;20170;-73
2023/08/26 04:50:44;;;;;;;7.67;3.57;;;13.60;99.90;;;;;;5054078;28;20315;-73
2023/08/26 04:53:10;;;;;;;7.47;3.90;;;13.60;99.90;;;;;;5063158;28;20177;-74
2023/08/26 04:55:36;;;;;;;5.03;3.73;;;13.70;99.90;;;;;;5074375;28;20182;-73
2023/08/26 04:58:02;;;;;;;5.03;3.67;;;13.70;99.90;;;;;;5073931;28;20220;-74
2023/08/26 05:00:28;;;;;;;4.73;3.73;;;13.70;99.90;;;;;;5073376;28;20178;-74
2023/08/26 05:02:54;;;;;;;3.33;3.13;;;13.80;99.90;;;;;;5072894;28;20174;-74
2023/08/26 05:05:19;;;;;;;4.27;3.10;;;13.80;99.90;;;;;;5073134;28;20190;-73
2023/08/26 05:07:45;;;;;;;4.03;3.33;;;13.80;99.90;;;;;;5064631;28;20207;-74
2023/08/26 05:10:10;;;;;;;8.00;3.57;;;13.90;99.90;;;;;;5053417;28;20175;-73
2023/08/26 05:12:36;;;;;;;3.20;2.90;;;13.90;99.90;;;;;;5056829;28;20181;-74
2023/08/26 05:15:04;;;;;;;3.67;3.10;;;13.90;99.90;;;;;;5073319;28;20668;-74
2023/08/26 05:17:30;;;;;;;3.30;3.10;;;13.90;99.90;;;;;;5073396;28;20242;-73
2023/08/26 05:19:55;;;;;;;4.63;3.40;;;13.90;99.90;;;;;;5073311;28;20226;-74
2023/08/26 05:22:21;;;;;;;8.57;3.83;;;14.00;99.90;;;;;;5072924;28;20655;-73
2023/08/26 05:24:47;;;;;;;3.60;3.27;;;14.00;99.90;;;;;;5073504;28;20269;-72
2023/08/26 05:27:14;;;;;;;3.53;2.87;;;14.10;99.90;;;;;;5071313;28;20297;-73
2023/08/26 05:29:40;;;;;;;5.03;2.90;;;14.20;99.90;;;;;;5073140;28;20285;-73
2023/08/26 05:32:06;;;;;;;3.43;3.10;;;14.20;99.90;;;;;;5072370;28;20177;-72
2023/08/26 05:34:31;;;;;;;3.10;2.90;;;14.30;99.90;;;;;;5069116;28;20680;-72
2023/08/26 05:36:58;;;;;;;3.00;2.80;;;14.40;99.90;;;;;;5052341;28;20171;-72
2023/08/26 05:39:23;;;;;;;3.53;2.60;;;14.50;99.90;;;;;;5051537;28;20198;-72
2023/08/26 05:41:49;;;;;;;3.23;2.90;;;14.70;99.90;;;;;;5050901;28;20672;-72
2023/08/26 05:44:15;;;;;;;3.40;2.77;;;14.90;99.90;;;;;;5052692;28;20197;-72
2023/08/26 05:46:40;;;;;;;3.00;2.80;;;15.10;99.90;;;;;;5065690;28;20483;-73
2023/08/26 05:49:06;;;;;;;3.70;2.57;;;15.30;99.90;;;;;;5071016;28;20208;-72
2023/08/26 05:51:31;;;;;;;3.83;2.70;;;15.50;99.90;;;;;;5071798;28;20528;-71
2023/08/26 05:53:57;;;;;;;4.33;2.70;;;15.60;99.90;;;;;;5072351;28;20181;-71
2023/08/26 05:56:23;;;;;;;5.03;2.50;;;15.70;99.90;;;;;;5072165;28;20240;-72
2023/08/26 05:58:48;;;;;;;3.00;2.63;;;15.80;99.90;;;;;;5072125;28;20249;-72
2023/08/26 06:01:14;;;;;;;3.63;2.70;;;15.80;99.90;;;;;;5070971;28;20178;-73
2023/08/26 06:03:39;;;;;;;3.00;2.80;;;15.80;99.90;;;;;;5053218;28;20707;-71
2023/08/26 06:06:05;;;;;;;4.27;2.53;;;15.80;99.90;;;;;;5051904;28;20201;-72
2023/08/26 06:08:31;;;;;;;2.93;2.73;;;15.80;99.90;;;;;;5051979;28;20190;-73
2023/08/26 06:10:57;;;;;;;2.70;2.50;;;15.90;99.90;;;;;;5052578;28;20258;-72
2023/08/26 06:13:23;;;;;;;2.40;2.30;;;16.00;99.90;;;;;;5050422;28;20167;-73
2023/08/26 06:15:55;;;;;;;3.47;2.40;;;16.30;99.90;;;;;;5052264;28;20287;-74
2023/08/26 06:18:21;;;;;;;2.83;2.47;;;16.70;99.90;;;;;;5052253;28;20786;-73
2023/08/26 06:20:50;;;;;;;3.23;2.30;;;17.00;99.90;;;;;;5052154;28;20208;-73
2023/08/26 06:23:16;;;;;;;2.67;2.13;;;17.40;99.90;;;;;;5052297;28;20178;-74
2023/08/26 06:25:56;;;;;;;2.40;2.20;;;17.90;99.90;;;;;;5049915;28;20764;-74
2023/08/26 06:28:23;;;;;;;2.97;2.17;;;18.40;99.90;;;;;;5051780;28;20162;-73
2023/08/26 06:30:49;;;;;;;2.87;2.57;;;18.80;99.90;;;;;;5052142;28;20167;-74
2023/08/26 06:33:16;;;;;;;5.03;2.47;;;19.10;99.90;;;;;;5050199;28;20174;-74
2023/08/26 06:35:47;;;;;;;2.17;1.93;;;19.40;99.90;;;;;;5051286;28;20199;-72
2023/08/26 06:38:13;;;;;;;2.57;2.13;;;19.60;99.90;;;;;;5052013;28;20615;-73
2023/08/26 06:40:38;;;;;;;3.37;2.47;;;19.60;99.90;;;;;;5051707;28;20210;-74
2023/08/26 06:43:04;;;;;;;2.40;2.20;;;19.70;99.90;;;;;;5051566;28;20192;-74
2023/08/26 06:45:30;;;;;;;2.53;2.33;;;19.90;99.90;;;;;;5051516;28;20195;-73
2023/08/26 06:47:57;;;;;;;2.50;2.30;;;20.20;99.90;;;;;;5062800;28;20174;-74
2023/08/26 06:50:23;;;;;;;2.93;2.10;;;20.60;99.90;;;;;;5071375;28;20261;-74
2023/08/26 06:52:49;;;;;;;2.30;2.10;;;20.90;99.90;;;;;;5071167;28;20197;-74
2023/08/26 06:55:18;;;;;;;4.43;2.23;;;20.90;99.90;;;;;;5071723;28;20712;-71
2023/08/26 06:57:44;;;;;;;2.20;2.10;;;21.30;99.90;;;;;;5071003;28;20178;-73
2023/08/26 07:00:12;;;;;;;3.45;2.45;;;21.30;99.90;;;;;;5070111;28;20255;-71
2023/08/26 07:02:37;;;;;;;5.95;2.17;;;21.50;99.90;;;;;;5068613;28;20272;-74
2023/08/26 07:05:04;;;;;;;3.97;2.30;;;21.70;99.90;;;;;;5071206;28;20289;-73
2023/08/26 07:07:29;;;;;;;2.22;2.03;;;21.80;99.90;;;;;;5053702;28;20565;-73
2023/08/26 07:09:55;;;;;;;3.35;2.00;;;21.80;99.90;;;;;;5070948;28;20185;-74
2023/08/26 07:12:21;;;;;;;2.05;1.95;;;21.80;99.90;;;;;;5070383;28;20179;-71
2023/08/26 07:14:46;;;;;;;2.45;1.90;;;22.00;99.90;;;;;;5071028;28;20749;-74
2023/08/26 07:17:12;;;;;;;2.20;2.00;;;21.90;99.90;;;;;;5069990;28;20174;-74
2023/08/26 07:19:38;;;;;;;1.85;1.75;;;22.00;99.90;;;;;;5071149;28;20184;-74
2023/08/26 07:22:04;;;;;;;2.28;1.92;;;22.20;99.90;;;;;;5069652;28;20273;-74
2023/08/26 07:24:29;;;;;;;3.03;2.28;;;22.60;99.90;;;;;;5071119;28;20269;-72
2023/08/26 07:26:55;;;;;;;2.10;2.00;;;22.80;99.90;;;;;;5071138;28;20198;-73
2023/08/26 07:29:21;;;;;;;3.60;2.92;;;23.00;99.90;;;;;;5070995;28;20227;-73
2023/08/26 07:31:46;;;;;;;3.50;3.28;;;23.20;99.90;;;;;;5069201;28;20198;-74
2023/08/26 07:34:12;;;;;;;3.80;3.22;;;23.30;99.90;;;;;;5071239;28;20586;-72
2023/08/26 07:36:37;;;;;;;2.88;2.67;;;23.40;99.90;;;;;;5070815;28;20197;-73
2023/08/26 07:39:03;;;;;;;2.75;2.50;;;23.30;99.90;;;;;;5074423;28;20190;-73
2023/08/26 07:41:29;;;;;;;2.15;2.05;;;23.60;99.90;;;;;;5073452;28;20193;-73
2023/08/26 07:43:54;;;;;;;2.55;2.25;;;23.80;99.90;;;;;;5075135;28;20202;-73
2023/08/26 07:46:22;;;;;;;3.28;2.10;;;23.80;99.90;;;;;;5075000;28;20217;-73
2023/08/26 07:48:49;;;;;;;2.17;2.00;;;23.50;99.90;;;;;;5075172;28;20169;-73
2023/08/26 07:51:15;;;;;;;4.47;2.33;;;23.40;99.90;;;;;;5073674;28;20167;-74
2023/08/26 07:53:40;;;;;;;2.70;2.50;;;23.50;99.90;;;;;;5074653;28;20181;-73
2023/08/26 07:56:06;;;;;;;4.55;2.15;;;23.80;99.90;;;;;;5074544;28;20170;-72
2023/08/26 07:58:32;;;;;;;2.17;1.73;;;24.00;99.90;;;;;;5074385;28;20640;-74
2023/08/26 08:00:57;;;;;;;3.65;2.47;;;24.10;99.90;;;;;;5074439;28;20176;-73
2023/08/26 08:03:23;;;;;;;2.53;2.33;;;24.30;99.90;;;;;;5074506;28;20569;-72
2023/08/26 08:05:49;;;;;;;2.55;2.20;;;24.50;99.90;;;;;;5074577;28;20197;-73
2023/08/26 08:08:14;;;;;;;2.95;2.13;;;24.50;99.90;;;;;;5074584;28;20170;-74
2023/08/26 08:10:40;;;;;;;2.03;1.83;;;24.70;99.90;;;;;;5074534;28;20501;-74
2023/08/26 08:13:05;;;;;;;4.60;2.22;;;24.80;99.90;;;;;;5072749;28;20182;-75
2023/08/26 08:15:31;;;;;;;2.35;2.15;;;25.10;99.90;;;;;;5074297;28;20190;-74
2023/08/26 08:17:57;;;;;;;3.15;2.58;;;25.30;99.90;;;;;;5074692;28;20521;-74
2023/08/26 08:20:22;;;;;;;2.78;2.58;;;25.60;99.90;;;;;;5074202;28;20253;-74
2023/08/26 08:22:48;;;;;;;3.25;1.70;;;25.80;99.90;;;;;;5074088;28;20166;-74
2023/08/26 08:25:14;;;;;;;2.40;1.80;;;26.00;99.90;;;;;;5075893;28;20201;-73
2023/08/26 08:27:40;;;;;;;3.78;2.10;;;25.90;99.90;;;;;;5074019;28;20194;-71
2023/08/26 08:30:07;;;;;;;2.97;2.28;;;25.60;99.90;;;;;;5074205;28;20170;-72
2023/08/26 08:32:33;;;;;;;2.10;1.90;;;25.50;99.90;;;;;;5072549;28;20181;-74
2023/08/26 08:34:59;;;;;;;1.98;1.88;;;25.60;99.90;;;;;;5074254;28;20198;-74
2023/08/26 08:37:25;;;;;;;3.42;1.90;;;25.50;99.90;;;;;;5073979;28;20166;-74
2023/08/26 08:39:50;;;;;;;2.38;1.77;;;25.20;99.90;;;;;;5074128;28;20232;-73
2023/08/26 08:42:17;;;;;;;2.67;2.10;;;25.20;99.90;;;;;;5073193;28;20178;-74
2023/08/26 08:44:46;;;;;;;2.30;2.03;;;25.20;99.90;;;;;;5072124;28;20289;-72
2023/08/26 08:47:13;;;;;;;2.03;1.92;;;25.20;99.90;;;;;;5073778;28;20204;-74
2023/08/26 08:49:42;;;;;;;3.33;2.00;;;25.30;99.90;;;;;;5073426;28;20188;-74
2023/08/26 08:52:07;;;;;;;3.80;2.40;;;25.70;99.90;;;;;;5073493;28;20706;-73
2023/08/26 08:54:35;;;;;;;3.83;1.92;;;26.10;99.90;;;;;;5073638;28;20349;-74
2023/08/26 08:57:05;;;;;;;3.20;2.50;;;26.30;99.90;;;;;;5072639;28;20549;-74
2023/08/26 08:59:36;;;;;;;3.15;2.95;;;26.70;99.90;;;;;;5073720;28;20510;-73
2023/08/26 09:02:03;;;;;;;2.88;2.67;;;26.70;99.90;;;;;;5073504;28;20675;-73
2023/08/26 09:04:29;;;;;;;2.50;2.33;;;26.50;99.90;;;;;;5073512;28;20543;-74
2023/08/26 09:06:55;;;;;;;1.80;1.70;;;26.00;99.90;;;;;;5073591;28;20209;-73
2023/08/26 09:09:22;;;;;;;2.53;2.08;;;25.50;99.90;;;;;;5073332;28;20170;-73
2023/08/26 09:11:48;;;;;;;4.03;3.83;;;25.50;99.90;;;;;;5073399;28;20174;-73
2023/08/26 09:14:14;;;;;;;2.78;2.67;;;25.30;99.90;;;;;;5071665;28;20216;-74
2023/08/26 09:16:42;;;;;;;2.83;2.72;;;25.30;99.90;;;;;;5073493;28;20178;-74
2023/08/26 09:19:12;;;;;;;4.75;4.35;;;25.30;99.90;;;;;;5073414;28;20758;-74
2023/08/26 09:21:42;;;;;;;7.15;6.75;;;25.40;99.90;;;;;;5072260;28;20224;-73
2023/08/26 09:24:14;;;;;;;2.33;2.22;;;25.60;99.90;;;;;;5073106;28;20194;-73
2023/08/26 09:26:43;;;;;;;3.00;2.80;;;25.60;99.90;;;;;;5073044;28;20202;-72
2023/08/26 09:29:18;;;;;;;2.03;1.92;;;25.40;99.90;;;;;;5073245;28;20162;-72
2023/08/26 09:31:51;;;;;;;2.65;2.45;;;25.40;99.90;;;;;;5072934;28;20256;-73
2023/08/26 09:34:30;;;;;;;9.52;3.22;;;25.20;99.90;;;;;;5071482;28;20186;-72
2023/08/26 09:36:56;;;;;;;3.42;3.20;;;25.10;99.90;;;;;;5073113;28;20256;-74
2023/08/26 09:39:22;;;;;;;2.22;2.10;;;25.20;99.90;;;;;;5072786;28;20541;-75
2023/08/26 09:41:48;;;;;;;2.97;2.78;;;25.50;99.90;;;;;;5072451;28;20186;-73
2023/08/26 09:44:18;;;;;;;3.58;3.25;;;25.60;99.90;;;;;;5072719;28;20186;-74
2023/08/26 09:46:44;;;;;;;2.10;2.00;;;26.00;99.90;;;;;;5070936;28;20275;-73
2023/08/26 09:49:17;;;;;;;1.70;1.60;;;26.30;99.90;;;;;;5071486;28;20232;-72
2023/08/26 09:51:50;;;;;;;3.08;2.55;;;26.40;99.90;;;;;;5072455;28;20180;-72
2023/08/26 09:54:21;;;;;;;2.70;1.83;;;26.40;99.90;;;;;;5072465;28;20186;-73
2023/08/26 09:56:48;;;;;;;2.10;1.95;;;26.50;99.90;;;;;;5072553;28;20643;-73
2023/08/26 09:59:15;;;;;;;3.55;2.08;;;26.50;99.90;;;;;;5068215;28;20261;-73
2023/08/26 10:01:42;;;;;;;3.67;2.35;;;26.70;99.90;;;;;;5058898;28;20179;-73
2023/08/26 10:04:20;;;;;;;2.60;2.40;;;26.80;99.90;;;;;;5052770;28;20274;-74
2023/08/26 10:06:55;;;;;;;2.70;2.33;;;26.80;99.90;;;;;;5052738;28;20285;-73
2023/08/26 10:09:46;;;;;;;3.00;2.90;;;26.90;99.90;;;;;;5052637;28;20170;-73
2023/08/26 10:12:19;;;;;;;3.33;3.13;;;26.90;99.90;;;;;;5052176;28;20199;-73
2023/08/26 10:14:50;;;;;;;4.43;4.15;;;26.80;99.90;;;;;;5052584;28;20249;-73
2023/08/26 10:17:19;;;;;;;3.78;2.80;;;26.70;99.90;;;;;;5052529;28;20167;-70
2023/08/26 10:19:46;;;;;;;4.55;4.25;;;26.50;99.90;;;;;;5052669;28;20192;-72
2023/08/26 10:22:13;;;;;;;3.95;2.70;;;26.30;99.90;;;;;;5052232;28;20178;-71
2023/08/26 10:24:39;;;;;;;3.50;1.90;;;26.20;99.90;;;;;;5052272;28;20223;-72
2023/08/26 10:27:09;;;;;;;1.92;1.83;;;25.70;99.90;;;;;;5052397;28;20249;-73
2023/08/26 10:29:38;;;;;;;9.88;2.30;;;25.70;99.90;;;;;;5052423;28;20166;-73
2023/08/26 10:32:16;;;;;;;2.50;2.15;;;25.80;99.90;;;;;;5052015;28;20241;-73
2023/08/26 10:34:55;;;;;;;3.25;2.08;;;26.10;99.90;;;;;;5068997;28;20668;-71
2023/08/26 10:37:28;;;;;;;2.08;1.98;;;26.10;99.90;;;;;;5071975;28;20180;-73
2023/08/26 10:39:55;;;;;;;4.03;2.25;;;25.60;99.90;;;;;;5071920;28;20261;-72
2023/08/26 10:42:22;;;;;;;2.55;2.45;;;25.40;99.90;;;;;;5071226;28;20561;-73
2023/08/26 10:44:56;;;;;;;2.58;1.98;;;25.60;99.90;;;;;;5071799;28;20198;-73
2023/08/26 10:47:40;;;;;;;3.78;2.85;;;25.80;99.90;;;;;;5071324;28;20193;-73
2023/08/26 10:50:22;;;;;;;2.50;2.30;;;26.20;99.90;;;;;;5051859;28;20203;-73
2023/08/26 10:52:53;;;;;;;3.08;2.97;;;26.00;99.90;;;;;;5051430;28;20633;-71
2023/08/26 10:55:19;;;;;;;2.65;1.80;;;25.80;99.90;;;;;;5052038;28;20186;-73
2023/08/26 10:58:13;;;;;;;2.03;1.83;;;25.60;99.90;;;;;;5059948;28;20593;-74
2023/08/26 11:00:41;;;;;;;3.88;1.70;;;25.70;99.90;;;;;;5071436;28;20174;-73
2023/08/26 11:03:10;;;;;;;1.70;1.60;;;25.90;99.90;;;;;;5071305;28;20510;-74
2023/08/26 11:05:37;;;;;;;2.30;2.10;;;25.90;99.90;;;;;;5071331;28;20563;-73
2023/08/26 11:08:04;;;;;;;2.20;1.90;;;26.00;99.90;;;;;;5051882;28;20193;-73
2023/08/26 11:10:34;;;;;;;2.40;2.20;;;25.60;99.90;;;;;;5051190;28;20262;-73
2023/08/26 11:13:01;;;;;;;2.28;2.10;;;25.40;99.90;;;;;;5051034;28;20586;-74
2023/08/26 11:15:35;;;;;;;2.92;2.53;;;25.10;99.90;;;;;;5051410;28;20193;-73
2023/08/26 11:18:01;;;;;;;3.22;2.10;;;25.00;99.90;;;;;;5050078;28;20228;-74
2023/08/26 11:20:28;;;;;;;2.47;2.30;;;24.90;99.90;;;;;;5051112;28;20183;-73
2023/08/26 11:22:54;;;;;;;2.47;2.38;;;24.90;99.90;;;;;;5051122;28;20177;-74
2023/08/26 11:25:20;;;;;;;2.17;2.05;;;24.60;99.90;;;;;;5051160;28;20195;-73
2023/08/26 11:27:46;;;;;;;1.80;1.70;;;24.40;99.90;;;;;;5051111;28;20203;-74
2023/08/26 11:30:12;;;;;;;2.10;2.00;;;24.40;99.90;;;;;;5051958;28;20174;-74
2023/08/26 11:32:39;;;;;;;2.65;2.00;;;24.30;99.90;;;;;;5050791;28;20209;-74
2023/08/26 11:35:06;;;;;;;2.38;2.28;;;24.20;99.90;;;;;;5067555;28;20202;-73
2023/08/26 11:37:35;;;;;;;4.35;2.30;;;24.20;99.90;;;;;;5071014;28;20201;-74
2023/08/26 11:40:05;;;;;;;2.45;1.90;;;24.00;99.90;;;;;;5071183;28;20178;-74
2023/08/26 11:42:30;;;;;;;5.80;2.33;;;24.00;99.90;;;;;;5069101;28;20197;-74
2023/08/26 11:44:56;;;;;;;2.47;1.95;;;24.20;99.90;;;;;;5052959;28;20267;-73
2023/08/26 11:47:23;;;;;;;2.50;1.83;;;24.90;99.90;;;;;;5062068;28;20202;-74
2023/08/26 11:49:53;;;;;;;2.40;2.30;;;25.60;99.90;;;;;;5051062;28;20289;-73
2023/08/26 11:52:19;;;;;;;3.55;2.30;;;25.80;99.90;;;;;;5058312;28;20175;-74
2023/08/26 11:54:44;;;;;;;3.50;3.30;;;25.70;99.90;;;;;;5064118;28;20197;-73
2023/08/26 11:57:12;;;;;;;2.08;1.95;;;25.20;99.90;;;;;;5069837;28;20177;-72
2023/08/26 11:59:38;;;;;;;2.72;2.15;;;24.80;99.90;;;;;;5050859;28;20175;-73
2023/08/26 12:02:22;;;;;;;2.08;1.98;;;24.80;99.90;;;;;;5050619;28;20190;-71
2023/08/26 12:04:56;;;;;;;2.47;1.88;;;24.80;99.90;;;;;;5050211;28;20195;-73
2023/08/26 12:07:22;;;;;;;2.20;2.00;;;24.90;99.90;;;;;;5051144;28;20287;-73
2023/08/26 12:09:48;;;;;;;2.15;1.95;;;25.30;99.90;;;;;;5051075;28;20646;-71
2023/08/26 12:12:18;;;;;;;2.33;2.10;;;25.80;99.90;;;;;;5050637;28;20702;-71
2023/08/26 12:14:43;;;;;;;2.35;2.15;;;26.30;99.90;;;;;;5050868;28;20193;-73
2023/08/26 12:17:09;;;;;;;2.28;2.05;;;27.00;99.90;;;;;;5050968;28;20206;-73
2023/08/26 12:19:36;;;;;;;2.42;2.22;;;27.70;99.90;;;;;;5051208;28;20242;-72
2023/08/26 12:22:03;;;;;;;2.75;2.20;;;27.90;99.90;;;;;;5051948;28;20561;-73
2023/08/26 12:24:28;;;;;;;3.03;2.83;;;27.70;99.90;;;;;;5068100;28;20186;-72
2023/08/26 12:26:54;;;;;;;3.92;2.50;;;27.60;99.90;;;;;;5055591;28;20205;-71
2023/08/26 12:29:20;;;;;;;3.60;3.40;;;27.40;99.90;;;;;;5066345;28;20178;-74
2023/08/26 12:31:49;;;;;;;3.05;1.80;;;26.90;99.90;;;;;;5055139;28;20194;-72
2023/08/26 12:34:14;;;;;;;1.90;1.80;;;26.60;99.90;;;;;;5058689;28;20198;-73
2023/08/26 12:36:40;;;;;;;3.05;2.85;;;26.70;99.90;;;;;;5055267;28;20183;-74
2023/08/26 12:39:06;;;;;;;2.47;2.20;;;27.20;99.90;;;;;;5065312;28;20261;-72
2023/08/26 12:41:31;;;;;;;2.40;2.20;;;27.20;99.90;;;;;;5054002;28;20182;-73
2023/08/26 12:43:57;;;;;;;4.45;2.00;;;27.30;99.90;;;;;;5064917;28;20580;-72
2023/08/26 12:46:24;;;;;;;2.13;1.83;;;27.40;99.90;;;;;;5073960;28;20198;-71